createdAt,value
2022-07-31T00:00:23.489Z,97275.00
2022-07-31T00:02:51.129Z,97286.00
2022-07-31T00:05:18.821Z,97279.00
2022-07-31T00:07:46.064Z,97275.00
2022-07-31T00:10:13.365Z,97281.00
2022-07-31T00:12:40.606Z,97278.00
2022-07-31T00:15:10.031Z,97270.00
2022-07-31T00:17:39.116Z,97275.00
2022-07-31T00:20:07.070Z,97273.00
2022-07-31T00:22:35.486Z,97274.00
2022-07-31T00:25:02.674Z,97265.00
2022-07-31T00:27:29.859Z,97269.00
2022-07-31T00:29:57.064Z,97275.00
2022-07-31T00:32:24.258Z,97269.00
2022-07-31T00:34:51.462Z,97274.00
2022-07-31T00:37:18.771Z,97268.00
2022-07-31T00:39:45.955Z,97267.00
2022-07-31T00:42:23.863Z,97274.00
2022-07-31T00:44:51.799Z,97273.00
2022-07-31T00:47:23.813Z,97268.00
2022-07-31T00:49:52.111Z,97266.00
2022-07-31T00:52:19.674Z,97263.00
2022-07-31T00:54:46.925Z,97267.00
2022-07-31T00:57:15.247Z,97264.00
2022-07-31T00:59:43.614Z,97265.00
2022-07-31T01:02:11.225Z,97262.00
2022-07-31T01:04:41.541Z,97264.00
2022-07-31T01:07:09.104Z,97263.00
2022-07-31T01:09:36.682Z,97262.00
2022-07-31T01:12:33.496Z,97264.00
2022-07-31T01:15:03.598Z,97266.00
2022-07-31T01:17:31.273Z,97260.00
2022-07-31T01:19:58.661Z,97261.00
2022-07-31T01:22:44.482Z,97262.00
2022-07-31T01:25:14.613Z,97256.00
2022-07-31T01:28:15.075Z,97265.00
2022-07-31T01:31:27.179Z,97266.00
2022-07-31T01:34:29.894Z,97263.00
2022-07-31T01:37:20.822Z,97259.00
2022-07-31T01:39:52.711Z,97260.00
2022-07-31T01:42:21.165Z,97258.00
2022-07-31T01:44:51.724Z,97268.00
2022-07-31T01:47:29.105Z,97271.00
2022-07-31T01:50:02.969Z,97268.00
2022-07-31T01:52:59.071Z,97267.00
2022-07-31T01:56:02.852Z,97268.00
2022-07-31T01:58:27.359Z,97273.00
2022-07-31T02:00:58.361Z,97268.00
2022-07-31T02:03:42.904Z,97269.00
2022-07-31T02:06:13.812Z,97271.00
2022-07-31T02:08:42.110Z,97275.00
2022-07-31T02:11:09.377Z,97276.00
2022-07-31T02:13:36.749Z,97276.00
2022-07-31T02:16:04.329Z,97277.00
2022-07-31T02:18:33.755Z,97271.00
2022-07-31T02:21:01.034Z,97267.00
2022-07-31T02:23:28.257Z,97273.00
2022-07-31T02:25:55.583Z,97272.00
2022-07-31T02:28:25.096Z,97272.00
2022-07-31T02:30:52.599Z,97275.00
2022-07-31T02:33:22.079Z,97262.00
2022-07-31T02:35:55.869Z,97265.00
2022-07-31T02:38:26.369Z,97270.00
2022-07-31T02:40:56.755Z,97265.00
2022-07-31T02:43:25.774Z,97258.00
2022-07-31T02:46:13.903Z,97253.00
2022-07-31T02:49:03.560Z,97261.00
2022-07-31T02:52:00.781Z,97261.00
2022-07-31T02:57:19.653Z,97262.00
2022-07-31T02:59:46.844Z,97249.00
2022-07-31T03:02:14.043Z,97252.00
2022-07-31T03:04:41.322Z,97246.00
2022-07-31T03:07:08.630Z,97256.00
2022-07-31T03:09:36.393Z,97249.00
2022-07-31T03:12:05.164Z,97248.00
2022-07-31T03:14:34.361Z,97249.00
2022-07-31T03:17:03.142Z,97253.00
2022-07-31T03:19:30.421Z,97252.00
2022-07-31T03:21:57.734Z,97243.00
2022-07-31T03:24:26.300Z,97240.00
2022-07-31T03:26:53.503Z,97241.00
2022-07-31T03:29:39.258Z,97244.00
2022-07-31T03:32:08.060Z,97231.00
2022-07-31T03:34:35.228Z,97231.00
2022-07-31T03:37:02.994Z,97239.00
2022-07-31T03:39:30.240Z,97240.00
2022-07-31T03:41:57.701Z,97236.00
2022-07-31T03:44:26.339Z,97239.00
2022-07-31T03:50:14.478Z,97240.00
2022-07-31T03:53:18.143Z,97243.00
2022-07-31T03:55:45.601Z,97241.00
2022-07-31T03:58:15.775Z,97240.00
2022-07-31T04:01:01.365Z,97244.00
2022-07-31T04:03:48.287Z,97255.00
2022-07-31T04:06:34.137Z,97246.00
2022-07-31T04:09:30.742Z,97246.00
2022-07-31T04:12:18.177Z,97243.00
2022-07-31T04:17:50.781Z,97246.00
2022-07-31T04:20:18.574Z,97249.00
2022-07-31T04:22:45.832Z,97243.00
2022-07-31T04:25:16.560Z,97257.00
2022-07-31T04:27:45.594Z,97255.00
2022-07-31T04:30:15.951Z,97264.00
2022-07-31T04:32:43.834Z,97260.00
2022-07-31T04:35:11.569Z,97258.00
2022-07-31T04:37:38.753Z,97261.00
2022-07-31T04:40:15.953Z,97267.00
2022-07-31T04:42:43.187Z,97264.00
2022-07-31T04:45:19.243Z,97265.00
2022-07-31T04:47:59.484Z,97261.00
2022-07-31T05:04:10.419Z,97265.00
2022-07-31T05:07:00.835Z,97258.00
2022-07-31T05:09:51.396Z,97260.00
2022-07-31T05:12:32.388Z,97259.00
2022-07-31T05:15:02.429Z,97253.00
2022-07-31T05:17:52.835Z,97244.00
2022-07-31T05:20:43.869Z,97244.00
2022-07-31T05:25:59.239Z,97247.00
2022-07-31T05:29:04.933Z,97246.00
2022-07-31T05:35:15.775Z,97252.00
2022-07-31T05:37:58.646Z,97253.00
2022-07-31T05:43:33.156Z,97252.00
2022-07-31T05:46:00.444Z,97253.00
2022-07-31T05:48:27.799Z,97255.00
2022-07-31T05:50:54.996Z,97260.00
2022-07-31T05:53:28.312Z,97252.00
2022-07-31T05:56:13.286Z,97248.00
2022-07-31T05:58:48.548Z,97258.00
2022-07-31T06:01:15.925Z,97255.00
2022-07-31T06:03:51.573Z,97255.00
2022-07-31T06:06:19.520Z,97248.00
2022-07-31T06:08:46.828Z,97253.00
2022-07-31T06:11:14.023Z,97243.00
2022-07-31T06:13:43.239Z,97249.00
2022-07-31T06:16:14.697Z,97245.00
2022-07-31T06:18:42.292Z,97253.00
2022-07-31T06:21:09.762Z,97254.00
2022-07-31T06:23:37.061Z,97239.00
2022-07-31T06:26:04.947Z,97253.00
2022-07-31T06:28:48.642Z,97245.00
2022-07-31T06:31:20.966Z,97237.00
2022-07-31T06:33:49.468Z,97236.00
2022-07-31T06:36:18.158Z,97227.00
2022-07-31T06:38:45.941Z,97230.00
2022-07-31T06:41:36.022Z,97239.00
2022-07-31T06:44:03.495Z,97248.00
2022-07-31T06:46:30.744Z,97242.00
2022-07-31T06:48:57.988Z,97254.00
2022-07-31T06:51:30.968Z,97249.00
2022-07-31T06:54:00.414Z,97252.00
2022-07-31T06:56:28.289Z,97246.00
2022-07-31T06:58:55.678Z,97247.00
2022-07-31T07:01:23.203Z,97254.00
2022-07-31T07:03:50.661Z,97252.00
2022-07-31T07:06:18.323Z,97248.00
2022-07-31T07:08:45.846Z,97254.00
2022-07-31T07:11:13.276Z,97253.00
2022-07-31T07:13:45.279Z,97255.00
2022-07-31T07:16:14.174Z,97249.00
2022-07-31T07:18:42.971Z,97248.00
2022-07-31T07:21:10.475Z,97244.00
2022-07-31T07:23:37.843Z,97241.00
2022-07-31T07:26:05.889Z,97239.00
2022-07-31T07:28:33.396Z,97244.00
2022-07-31T07:31:00.784Z,97249.00
2022-07-31T07:33:40.714Z,97253.00
2022-07-31T07:36:23.396Z,97247.00
2022-07-31T07:38:53.857Z,97246.00
2022-07-31T07:41:25.504Z,97243.00
2022-07-31T07:43:53.279Z,97241.00
2022-07-31T07:46:22.199Z,97243.00
2022-07-31T07:48:50.993Z,97248.00
2022-07-31T07:51:18.722Z,97234.00
2022-07-31T07:53:45.950Z,97241.00
2022-07-31T07:56:13.227Z,97235.00
2022-07-31T07:58:40.755Z,97230.00
2022-07-31T08:01:08.123Z,97231.00
2022-07-31T08:03:50.185Z,97238.00
2022-07-31T08:06:20.904Z,97229.00
2022-07-31T08:08:48.131Z,97232.00
2022-07-31T08:11:16.841Z,97228.00
2022-07-31T08:13:50.188Z,97227.00
2022-07-31T08:16:19.698Z,97230.00
2022-07-31T08:18:47.144Z,97232.00
2022-07-31T08:21:14.516Z,97230.00
2022-07-31T08:23:42.187Z,97241.00
2022-07-31T08:26:09.500Z,97236.00
2022-07-31T08:28:37.062Z,97237.00
2022-07-31T08:31:04.443Z,97237.00
2022-07-31T08:33:33.073Z,97234.00
2022-07-31T08:36:01.029Z,97237.00
2022-07-31T08:38:28.936Z,97243.00
2022-07-31T08:40:56.226Z,97237.00
2022-07-31T08:44:01.440Z,97232.00
2022-07-31T08:46:11.700Z,97230.00
2022-07-31T08:48:41.650Z,97233.00
2022-07-31T08:51:12.338Z,97222.00
2022-07-31T08:53:39.933Z,97226.00
2022-07-31T08:56:08.987Z,97233.00
2022-07-31T09:02:45.283Z,97226.00
2022-07-31T09:05:23.114Z,97234.00
2022-07-31T09:07:50.458Z,97235.00
2022-07-31T09:10:25.761Z,97230.00
2022-07-31T09:12:54.010Z,97231.00
2022-07-31T09:15:30.196Z,97225.00
2022-07-31T09:17:57.968Z,97219.00
2022-07-31T09:20:26.838Z,97231.00
2022-07-31T09:23:07.891Z,97236.00
2022-07-31T09:25:35.297Z,97225.00
2022-07-31T09:28:04.675Z,97229.00
2022-07-31T09:30:32.587Z,97234.00
2022-07-31T09:33:16.381Z,97240.00
2022-07-31T09:35:48.421Z,97238.00
2022-07-31T09:38:16.336Z,97246.00
2022-07-31T09:40:51.622Z,97247.00
2022-07-31T09:43:24.675Z,97240.00
2022-07-31T09:46:00.714Z,97230.00
2022-07-31T09:48:29.016Z,97237.00
2022-07-31T09:51:06.189Z,97238.00
2022-07-31T09:53:43.382Z,97239.00
2022-07-31T09:56:12.639Z,97235.00
2022-07-31T09:58:41.030Z,97230.00
2022-07-31T10:01:11.075Z,97232.00
2022-07-31T10:03:39.396Z,97235.00
2022-07-31T10:06:10.773Z,97230.00
2022-07-31T10:08:39.824Z,97224.00
2022-07-31T10:11:07.363Z,97221.00
2022-07-31T10:13:49.048Z,97218.00
2022-07-31T10:16:17.015Z,97211.00
2022-07-31T10:18:49.801Z,97211.00
2022-07-31T10:21:18.046Z,97194.00
2022-07-31T10:23:45.703Z,97203.00
2022-07-31T10:26:13.378Z,97202.00
2022-07-31T10:28:40.669Z,97205.00
2022-07-31T10:31:08.387Z,97217.00
2022-07-31T10:33:44.743Z,97208.00
2022-07-31T10:36:18.842Z,97206.00
2022-07-31T10:39:04.214Z,97205.00
2022-07-31T10:42:06.199Z,97204.00
2022-07-31T10:44:51.267Z,97204.00
2022-07-31T10:47:18.896Z,97192.00
2022-07-31T10:49:48.961Z,97186.00
2022-07-31T10:52:30.842Z,97185.00
2022-07-31T10:55:00.242Z,97180.00
2022-07-31T10:57:55.849Z,97183.00
2022-07-31T11:00:42.480Z,97177.00
2022-07-31T11:03:26.102Z,97184.00
2022-07-31T11:06:03.318Z,97173.00
2022-07-31T11:08:44.994Z,97166.00
2022-07-31T11:11:12.957Z,97163.00
2022-07-31T11:13:51.216Z,97166.00
2022-07-31T11:16:19.164Z,97170.00
2022-07-31T11:19:01.153Z,97161.00
2022-07-31T11:21:38.857Z,97168.00
2022-07-31T11:24:33.092Z,97162.00
2022-07-31T11:27:00.294Z,97165.00
2022-07-31T11:30:01.735Z,97164.00
2022-07-31T11:32:25.901Z,97171.00
2022-07-31T11:34:57.919Z,97169.00
2022-07-31T11:37:31.832Z,97170.00
2022-07-31T11:40:14.539Z,97171.00
2022-07-31T11:42:46.214Z,97161.00
2022-07-31T11:45:15.231Z,97149.00
2022-07-31T11:48:12.478Z,97146.00
2022-07-31T11:50:40.823Z,97142.00
2022-07-31T11:53:08.023Z,97143.00
2022-07-31T11:55:49.753Z,97139.00
2022-07-31T11:58:18.789Z,97134.00
2022-07-31T12:01:03.442Z,97137.00
2022-07-31T12:03:33.201Z,97140.00
2022-07-31T12:06:00.482Z,97129.00
2022-07-31T12:08:27.965Z,97120.00
2022-07-31T12:10:57.102Z,97122.00
2022-07-31T12:13:25.555Z,97120.00
2022-07-31T12:16:04.341Z,97128.00
2022-07-31T12:18:45.846Z,97124.00
2022-07-31T12:21:13.299Z,97129.00
2022-07-31T12:23:46.491Z,97123.00
2022-07-31T12:26:23.506Z,97117.00
2022-07-31T12:29:11.069Z,97116.00
2022-07-31T12:31:50.811Z,97119.00
2022-07-31T12:34:31.421Z,97121.00
2022-07-31T12:37:06.661Z,97117.00
2022-07-31T12:39:50.780Z,97112.00
2022-07-31T12:42:30.986Z,97110.00
2022-07-31T12:45:19.185Z,97099.00
2022-07-31T12:47:52.035Z,97116.00
2022-07-31T12:50:20.518Z,97107.00
2022-07-31T12:52:47.747Z,97102.00
2022-07-31T12:55:17.115Z,97095.00
2022-07-31T12:57:50.895Z,97094.00
2022-07-31T13:00:20.128Z,97094.00
2022-07-31T13:02:47.336Z,97095.00
2022-07-31T13:08:00.516Z,97080.00
2022-07-31T13:10:32.275Z,97078.00
2022-07-31T13:12:59.705Z,97073.00
2022-07-31T13:15:30.192Z,97072.00
2022-07-31T13:17:58.810Z,97070.00
2022-07-31T13:20:26.196Z,97077.00
2022-07-31T13:22:53.571Z,97070.00
2022-07-31T13:25:20.891Z,97078.00
2022-07-31T13:27:48.102Z,97065.00
2022-07-31T13:30:16.195Z,97068.00
2022-07-31T13:32:43.408Z,97065.00
2022-07-31T13:35:24.211Z,97058.00
2022-07-31T13:37:56.262Z,97051.00
2022-07-31T13:40:43.898Z,97045.00
2022-07-31T13:43:11.297Z,97051.00
2022-07-31T13:45:38.753Z,97054.00
2022-07-31T13:48:09.234Z,97051.00
2022-07-31T13:50:38.272Z,97049.00
2022-07-31T13:53:05.596Z,97052.00
2022-07-31T13:55:32.856Z,97044.00
2022-07-31T13:58:01.318Z,97047.00
2022-07-31T14:00:29.392Z,97044.00
2022-07-31T14:02:57.113Z,97044.00
2022-07-31T14:05:26.401Z,97035.00
2022-07-31T14:07:54.741Z,97034.00
2022-07-31T14:10:22.601Z,97037.00
2022-07-31T14:12:49.911Z,97026.00
2022-07-31T14:15:18.293Z,97024.00
2022-07-31T14:17:45.809Z,97014.00
2022-07-31T14:20:13.532Z,97012.00
2022-07-31T14:22:41.218Z,97009.00
2022-07-31T14:25:09.314Z,97008.00
2022-07-31T14:27:38.525Z,97027.00
2022-07-31T14:30:09.434Z,97018.00
2022-07-31T14:32:36.772Z,97016.00
2022-07-31T14:35:08.314Z,97015.00
2022-07-31T14:37:36.449Z,96998.00
2022-07-31T14:40:05.213Z,97014.00
2022-07-31T14:42:32.957Z,97009.00
2022-07-31T14:45:02.854Z,97009.00
2022-07-31T14:47:33.929Z,96993.00
2022-07-31T14:50:09.279Z,97000.00
2022-07-31T14:52:38.034Z,97004.00
2022-07-31T14:55:06.258Z,97008.00
2022-07-31T14:57:33.551Z,97004.00
2022-07-31T15:00:00.856Z,97000.00
2022-07-31T15:02:28.349Z,96998.00
2022-07-31T15:04:55.642Z,96997.00
2022-07-31T15:07:45.632Z,96999.00
2022-07-31T15:10:11.292Z,96997.00
2022-07-31T15:12:38.802Z,96988.00
2022-07-31T15:15:07.319Z,96990.00
2022-07-31T15:17:34.642Z,96980.00
2022-07-31T15:20:01.875Z,96987.00
2022-07-31T15:22:29.304Z,96983.00
2022-07-31T15:24:57.090Z,96975.00
2022-07-31T15:27:25.010Z,96978.00
2022-07-31T15:30:04.457Z,96974.00
2022-07-31T15:32:36.114Z,96968.00
2022-07-31T15:35:04.588Z,96963.00
2022-07-31T15:37:34.731Z,96964.00
2022-07-31T15:40:05.606Z,96961.00
2022-07-31T15:42:33.737Z,96967.00
2022-07-31T15:45:01.063Z,96960.00
2022-07-31T15:47:28.575Z,96959.00
2022-07-31T15:49:55.799Z,96954.00
2022-07-31T15:52:23.129Z,96954.00
2022-07-31T15:54:51.858Z,96952.00
2022-07-31T15:57:21.151Z,96958.00
2022-07-31T15:59:49.301Z,96958.00
2022-07-31T16:02:16.733Z,96953.00
2022-07-31T16:04:51.491Z,96951.00
2022-07-31T16:08:32.409Z,96950.00
2022-07-31T16:10:16.558Z,96952.00
2022-07-31T16:12:48.428Z,96949.00
2022-07-31T16:15:16.747Z,96940.00
2022-07-31T16:17:44.843Z,96953.00
2022-07-31T16:20:20.826Z,96951.00
2022-07-31T16:22:56.602Z,96940.00
2022-07-31T16:25:25.291Z,96940.00
2022-07-31T16:27:52.710Z,96939.00
2022-07-31T16:30:20.137Z,96942.00
2022-07-31T16:32:47.511Z,96931.00
2022-07-31T16:35:14.912Z,96930.00
2022-07-31T16:37:49.906Z,96925.00
2022-07-31T16:40:28.768Z,96931.00
2022-07-31T16:43:47.508Z,96935.00
2022-07-31T16:45:50.236Z,96928.00
2022-07-31T16:48:17.545Z,96922.00
2022-07-31T16:50:56.101Z,96935.00
2022-07-31T16:54:10.989Z,96926.00
2022-07-31T16:56:33.853Z,96930.00
2022-07-31T16:59:12.702Z,96932.00
2022-07-31T17:01:59.658Z,96929.00
2022-07-31T17:05:15.194Z,96928.00
2022-07-31T17:10:43.012Z,96929.00
2022-07-31T17:13:11.297Z,96934.00
2022-07-31T17:16:10.337Z,96936.00
2022-07-31T17:19:06.083Z,96934.00
2022-07-31T17:22:03.144Z,96931.00
2022-07-31T17:25:02.130Z,96930.00
2022-07-31T17:28:01.118Z,96933.00
2022-07-31T17:30:28.448Z,96928.00
2022-07-31T17:32:55.659Z,96931.00
2022-07-31T17:35:22.986Z,96932.00
2022-07-31T17:37:50.559Z,96938.00
2022-07-31T17:40:42.022Z,96934.00
2022-07-31T17:43:05.533Z,96935.00
2022-07-31T17:45:50.738Z,96941.00
2022-07-31T17:48:20.667Z,96939.00
2022-07-31T17:50:51.323Z,96936.00
2022-07-31T17:53:21.138Z,96939.00
2022-07-31T17:55:49.873Z,96949.00
2022-07-31T17:58:17.097Z,96935.00
2022-07-31T18:00:44.344Z,96947.00
2022-07-31T18:03:11.645Z,96953.00
2022-07-31T18:05:38.990Z,96951.00
2022-07-31T18:08:06.610Z,96953.00
2022-07-31T18:10:53.617Z,96954.00
2022-07-31T18:13:21.701Z,96954.00
2022-07-31T18:15:49.105Z,96957.00
2022-07-31T18:18:16.561Z,96953.00
2022-07-31T18:20:45.610Z,96957.00
2022-07-31T18:23:14.463Z,96963.00
2022-07-31T18:25:42.515Z,96966.00
2022-07-31T18:28:10.020Z,96962.00
2022-07-31T18:30:40.908Z,96959.00
2022-07-31T18:33:10.037Z,96960.00
2022-07-31T18:35:37.615Z,96967.00
2022-07-31T18:38:04.948Z,96963.00
2022-07-31T18:40:32.759Z,96962.00
2022-07-31T18:43:00.504Z,96975.00
2022-07-31T18:45:28.466Z,96977.00
2022-07-31T18:47:55.830Z,96971.00
2022-07-31T18:50:58.408Z,96966.00
2022-07-31T18:53:10.845Z,96969.00
2022-07-31T18:55:38.213Z,96971.00
2022-07-31T18:58:05.817Z,96975.00
2022-07-31T19:00:33.336Z,96969.00
2022-07-31T19:03:00.827Z,96974.00
2022-07-31T19:05:28.216Z,96971.00
2022-07-31T19:07:55.542Z,96978.00
2022-07-31T19:10:29.480Z,96974.00
2022-07-31T19:12:59.484Z,96978.00
2022-07-31T19:15:27.032Z,96988.00
2022-07-31T19:17:58.458Z,96987.00
2022-07-31T19:20:41.261Z,96997.00
2022-07-31T19:23:15.709Z,96996.00
2022-07-31T19:26:02.059Z,96997.00
2022-07-31T19:28:32.203Z,97010.00
2022-07-31T19:30:59.434Z,97009.00
2022-07-31T19:33:26.892Z,97010.00
2022-07-31T19:36:00.710Z,97018.00
2022-07-31T19:38:29.967Z,97010.00
2022-07-31T19:40:57.418Z,97016.00
2022-07-31T19:43:24.758Z,97023.00
2022-07-31T19:46:10.888Z,97024.00
2022-07-31T19:48:44.203Z,97023.00
2022-07-31T19:51:13.008Z,97026.00
2022-07-31T19:53:41.584Z,97031.00
2022-07-31T19:56:09.671Z,97035.00
2022-07-31T19:58:37.654Z,97038.00
2022-07-31T20:01:05.996Z,97046.00
2022-07-31T20:03:34.036Z,97045.00
2022-07-31T20:06:02.444Z,97052.00
2022-07-31T20:08:33.528Z,97056.00
2022-07-31T20:11:03.930Z,97056.00
2022-07-31T20:13:32.882Z,97057.00
2022-07-31T20:16:00.427Z,97061.00
2022-07-31T20:18:29.004Z,97070.00
2022-07-31T20:21:06.929Z,97062.00
2022-07-31T20:23:38.213Z,97073.00
2022-07-31T20:26:08.068Z,97067.00
2022-07-31T20:28:36.155Z,97076.00
2022-07-31T20:31:03.556Z,97070.00
2022-07-31T20:33:31.033Z,97073.00
2022-07-31T20:35:58.389Z,97071.00
2022-07-31T20:38:25.688Z,97070.00
2022-07-31T20:40:55.735Z,97074.00
2022-07-31T20:43:29.929Z,97083.00
2022-07-31T20:45:58.543Z,97075.00
2022-07-31T20:48:33.026Z,97087.00
2022-07-31T20:51:02.501Z,97085.00
2022-07-31T20:53:30.279Z,97088.00
2022-07-31T20:55:57.938Z,97085.00
2022-07-31T20:58:26.877Z,97086.00
2022-07-31T21:00:54.518Z,97087.00
2022-07-31T21:03:24.028Z,97090.00
2022-07-31T21:05:55.509Z,97082.00
2022-07-31T21:08:29.106Z,97089.00
2022-07-31T21:11:01.074Z,97084.00
2022-07-31T21:13:59.722Z,97091.00
2022-07-31T21:16:42.677Z,97090.00
2022-07-31T21:19:17.303Z,97094.00
2022-07-31T21:21:44.559Z,97090.00
2022-07-31T21:24:11.883Z,97094.00
2022-07-31T21:26:39.571Z,97094.00
2022-07-31T21:29:17.391Z,97100.00
2022-07-31T21:32:12.992Z,97091.00
2022-07-31T21:34:57.261Z,97096.00
2022-07-31T21:38:11.934Z,97103.00
2022-07-31T21:40:48.282Z,97108.00
2022-07-31T21:43:36.444Z,97102.00
2022-07-31T21:47:01.069Z,97113.00
2022-07-31T21:49:44.022Z,97103.00
2022-07-31T21:52:11.800Z,97113.00
2022-07-31T21:54:39.066Z,97115.00
2022-07-31T21:57:06.277Z,97105.00
2022-07-31T21:59:33.478Z,97117.00
2022-07-31T22:02:02.001Z,97109.00
2022-07-31T22:04:32.193Z,97114.00
2022-07-31T22:07:20.818Z,97117.00
2022-07-31T22:09:47.999Z,97118.00
2022-07-31T22:12:15.354Z,97121.00
2022-07-31T22:14:42.547Z,97114.00
2022-07-31T22:17:09.719Z,97123.00
2022-07-31T22:19:44.305Z,97122.00
2022-07-31T22:22:15.052Z,97124.00
2022-07-31T22:24:42.539Z,97118.00
2022-07-31T22:27:28.232Z,97125.00
2022-07-31T22:29:55.897Z,97124.00
2022-07-31T22:32:23.282Z,97130.00
2022-07-31T22:34:50.501Z,97131.00
2022-07-31T22:37:17.733Z,97126.00
2022-07-31T22:39:45.465Z,97128.00
2022-07-31T22:42:12.702Z,97126.00
2022-07-31T22:44:39.966Z,97129.00
2022-07-31T22:47:07.761Z,97137.00
2022-07-31T22:49:36.586Z,97130.00
2022-07-31T22:52:05.759Z,97135.00
2022-07-31T22:54:33.838Z,97137.00
2022-07-31T22:57:01.053Z,97136.00
2022-07-31T22:59:28.249Z,97136.00
2022-07-31T23:01:55.525Z,97134.00
2022-07-31T23:04:22.881Z,97142.00
2022-07-31T23:06:50.222Z,97140.00
2022-07-31T23:09:17.898Z,97143.00
2022-07-31T23:11:45.253Z,97145.00
2022-07-31T23:14:12.476Z,97134.00
2022-07-31T23:16:39.683Z,97141.00
2022-07-31T23:19:07.179Z,97145.00
2022-07-31T23:21:34.371Z,97142.00
2022-07-31T23:24:01.586Z,97136.00
2022-07-31T23:26:28.757Z,97132.00
2022-07-31T23:28:56.575Z,97143.00
2022-07-31T23:31:24.060Z,97152.00
2022-07-31T23:33:52.456Z,97143.00
2022-07-31T23:36:19.685Z,97141.00
2022-07-31T23:38:46.920Z,97153.00
2022-07-31T23:41:14.508Z,97141.00
2022-07-31T23:43:41.955Z,97135.00
2022-07-31T23:46:26.498Z,97136.00
2022-07-31T23:48:54.403Z,97142.00
2022-07-31T23:51:23.040Z,97146.00
2022-07-31T23:53:50.311Z,97145.00
2022-07-31T23:56:19.251Z,97145.00
2022-07-31T23:58:46.826Z,97153.00
